createdAt,value
2023-05-10T00:00:55.620Z,99841.97
2023-05-10T00:03:22.225Z,99857.84
2023-05-10T00:05:48.950Z,99847.50
2023-05-10T00:08:15.518Z,99851.16
2023-05-10T00:10:42.081Z,99844.19
2023-05-10T00:13:08.682Z,99844.25
2023-05-10T00:15:35.650Z,99836.25
2023-05-10T00:18:02.246Z,99832.28
2023-05-10T00:20:28.846Z,99833.66
2023-05-10T00:22:55.471Z,99838.13
2023-05-10T00:25:22.741Z,99831.75
2023-05-10T00:27:50.681Z,99835.59
2023-05-10T00:30:17.607Z,99828.88
2023-05-10T00:32:44.574Z,99828.94
2023-05-10T00:35:11.449Z,99821.63
2023-05-10T00:37:38.054Z,99812.38
2023-05-10T00:40:05.831Z,99810.38
2023-05-10T00:42:32.679Z,99815.34
2023-05-10T00:44:59.253Z,99823.84
2023-05-10T00:47:25.886Z,99811.34
2023-05-10T00:49:52.776Z,99818.44
2023-05-10T00:52:19.464Z,99813.44
2023-05-10T00:54:46.214Z,99818.56
2023-05-10T00:57:12.799Z,99811.88
2023-05-10T00:59:39.495Z,99808.22
2023-05-10T01:02:06.848Z,99801.19
2023-05-10T01:04:33.928Z,99806.34
2023-05-10T01:07:00.715Z,99796.28
2023-05-10T01:09:27.745Z,99799.63
2023-05-10T01:11:55.957Z,99800.00
2023-05-10T01:14:23.839Z,99799.47
2023-05-10T01:16:51.038Z,99791.44
2023-05-10T01:19:26.206Z,99795.69
2023-05-10T01:22:01.517Z,99791.06
2023-05-10T01:24:45.642Z,99794.19
2023-05-10T01:27:40.058Z,99797.09
2023-05-10T01:30:26.961Z,99793.72
2023-05-10T01:33:02.224Z,99792.44
2023-05-10T01:35:39.188Z,99797.84
2023-05-10T01:38:20.853Z,99801.47
2023-05-10T01:41:13.452Z,99798.50
2023-05-10T01:44:10.726Z,99788.41
2023-05-10T01:46:39.335Z,99790.16
2023-05-10T01:49:12.570Z,99790.06
2023-05-10T01:52:08.010Z,99783.16
2023-05-10T01:54:36.374Z,99781.88
2023-05-10T01:57:06.457Z,99793.13
2023-05-10T01:59:42.120Z,99783.41
2023-05-10T02:02:12.768Z,99785.72
2023-05-10T02:04:44.073Z,99789.06
2023-05-10T02:07:11.521Z,99788.03
2023-05-10T02:09:39.080Z,99792.28
2023-05-10T02:12:07.923Z,99790.47
2023-05-10T02:14:37.109Z,99789.97
2023-05-10T02:17:06.165Z,99787.34
2023-05-10T02:19:35.966Z,99791.88
2023-05-10T02:22:04.215Z,99790.06
2023-05-10T02:24:34.673Z,99795.22
2023-05-10T02:27:04.315Z,99791.91
2023-05-10T02:29:32.762Z,99792.56
2023-05-10T02:32:00.801Z,99788.75
2023-05-10T02:34:28.595Z,99792.13
2023-05-10T02:36:57.085Z,99787.53
2023-05-10T02:39:25.405Z,99788.72
2023-05-10T02:41:54.457Z,99789.00
2023-05-10T02:44:22.477Z,99779.63
2023-05-10T02:46:49.099Z,99778.69
2023-05-10T02:49:16.620Z,99786.31
2023-05-10T02:51:48.726Z,99788.28
2023-05-10T02:54:21.378Z,99783.81
2023-05-10T02:56:54.655Z,99785.88
2023-05-10T02:59:21.337Z,99777.63
2023-05-10T03:01:47.978Z,99780.91
2023-05-10T03:04:14.995Z,99779.28
2023-05-10T03:06:42.202Z,99769.63
2023-05-10T03:09:10.627Z,99770.47
2023-05-10T03:11:40.815Z,99770.19
2023-05-10T03:14:31.226Z,99766.59
2023-05-10T03:17:05.575Z,99768.16
2023-05-10T03:19:44.313Z,99762.25
2023-05-10T03:22:12.130Z,99761.88
2023-05-10T03:24:42.179Z,99759.63
2023-05-10T03:27:10.434Z,99757.41
2023-05-10T03:29:38.235Z,99763.06
2023-05-10T03:32:05.172Z,99758.94
2023-05-10T03:34:32.640Z,99758.72
2023-05-10T03:36:59.434Z,99764.13
2023-05-10T03:39:28.511Z,99771.03
2023-05-10T03:41:58.558Z,99773.00
2023-05-10T03:44:25.368Z,99774.22
2023-05-10T03:46:51.972Z,99769.78
2023-05-10T03:49:18.829Z,99763.28
2023-05-10T03:51:45.530Z,99773.13
2023-05-10T03:54:12.278Z,99767.72
2023-05-10T03:56:38.876Z,99767.84
2023-05-10T03:59:09.819Z,99774.13
2023-05-10T04:01:36.480Z,99767.94
2023-05-10T04:04:03.225Z,99773.38
2023-05-10T04:06:31.943Z,99773.22
2023-05-10T04:09:00.899Z,99768.75
2023-05-10T04:11:27.824Z,99763.84
2023-05-10T04:13:54.363Z,99771.09
2023-05-10T04:16:20.994Z,99765.91
2023-05-10T04:18:47.593Z,99765.94
2023-05-10T04:21:14.667Z,99763.50
2023-05-10T04:23:41.676Z,99776.09
2023-05-10T04:26:08.660Z,99763.03
2023-05-10T04:28:35.759Z,99768.75
2023-05-10T04:31:03.811Z,99771.25
2023-05-10T04:33:30.792Z,99776.03
2023-05-10T04:35:57.486Z,99769.47
2023-05-10T04:38:24.779Z,99769.59
2023-05-10T04:40:51.896Z,99771.69
2023-05-10T04:43:18.452Z,99770.88
2023-05-10T04:45:45.164Z,99765.69
2023-05-10T04:48:12.238Z,99769.53
2023-05-10T04:50:38.901Z,99761.78
2023-05-10T04:53:06.256Z,99765.00
2023-05-10T04:55:32.839Z,99772.66
2023-05-10T04:58:00.003Z,99771.94
2023-05-10T05:00:26.813Z,99782.09
2023-05-10T05:02:53.570Z,99773.97
2023-05-10T05:05:20.315Z,99780.47
2023-05-10T05:07:46.868Z,99770.03
2023-05-10T05:10:14.739Z,99774.31
2023-05-10T05:12:41.433Z,99782.56
2023-05-10T05:15:10.067Z,99789.28
2023-05-10T05:17:36.846Z,99784.50
2023-05-10T05:20:04.170Z,99777.94
2023-05-10T05:22:30.941Z,99795.28
2023-05-10T05:24:59.166Z,99785.19
2023-05-10T05:27:27.235Z,99797.22
2023-05-10T05:29:55.094Z,99791.94
2023-05-10T05:32:22.135Z,99789.44
2023-05-10T05:34:48.997Z,99798.53
2023-05-10T05:37:22.467Z,99797.59
2023-05-10T05:39:49.661Z,99803.00
2023-05-10T05:42:18.534Z,99802.22
2023-05-10T05:44:45.300Z,99815.25
2023-05-10T05:47:12.005Z,99812.63
2023-05-10T05:49:39.118Z,99829.31
2023-05-10T05:52:05.954Z,99825.59
2023-05-10T05:54:33.289Z,99837.25
2023-05-10T05:57:01.532Z,99847.78
2023-05-10T05:59:28.675Z,99843.31
2023-05-10T06:01:55.888Z,99845.31
2023-05-10T06:04:22.968Z,99844.47
2023-05-10T06:06:49.769Z,99839.28
2023-05-10T06:09:16.876Z,99845.50
2023-05-10T06:11:44.018Z,99847.28
2023-05-10T06:14:11.537Z,99847.88
2023-05-10T06:16:38.220Z,99846.50
2023-05-10T06:19:05.052Z,99850.78
2023-05-10T06:21:31.668Z,99854.28
2023-05-10T06:23:58.562Z,99848.72
2023-05-10T06:26:25.092Z,99845.25
2023-05-10T06:28:51.696Z,99851.16
2023-05-10T06:31:18.651Z,99853.56
2023-05-10T06:33:45.613Z,99859.78
2023-05-10T06:36:12.600Z,99866.63
2023-05-10T06:38:40.245Z,99865.78
2023-05-10T06:41:06.777Z,99861.69
2023-05-10T06:43:33.431Z,99869.50
2023-05-10T06:46:00.583Z,99871.84
2023-05-10T06:48:27.151Z,99872.41
2023-05-10T06:50:54.013Z,99867.47
2023-05-10T06:53:20.608Z,99864.38
2023-05-10T06:55:47.412Z,99864.50
2023-05-10T06:58:14.093Z,99862.25
2023-05-10T07:00:41.536Z,99856.38
2023-05-10T07:03:08.472Z,99859.69
2023-05-10T07:05:35.388Z,99860.22
2023-05-10T07:08:02.707Z,99866.91
2023-05-10T07:10:29.364Z,99858.97
2023-05-10T07:12:55.907Z,99870.88
2023-05-10T07:15:22.726Z,99860.50
2023-05-10T07:17:49.374Z,99879.06
2023-05-10T07:20:16.157Z,99881.75
2023-05-10T07:22:42.993Z,99879.69
2023-05-10T07:25:10.162Z,99885.28
2023-05-10T07:27:36.832Z,99892.63
2023-05-10T07:30:03.560Z,99893.00
2023-05-10T07:32:30.184Z,99891.28
2023-05-10T07:34:56.980Z,99901.91
2023-05-10T07:37:23.769Z,99903.63
2023-05-10T07:39:50.270Z,99902.09
2023-05-10T07:42:17.027Z,99899.97
2023-05-10T07:44:44.242Z,99904.91
2023-05-10T07:47:10.821Z,99907.59
2023-05-10T07:49:37.381Z,99911.47
2023-05-10T07:52:04.489Z,99915.78
2023-05-10T07:54:31.058Z,99920.69
2023-05-10T07:56:57.585Z,99916.63
2023-05-10T07:59:24.187Z,99918.28
2023-05-10T08:01:50.793Z,99916.88
2023-05-10T08:04:17.944Z,99924.47
2023-05-10T08:06:44.466Z,99923.44
2023-05-10T08:09:11.842Z,99933.34
2023-05-10T08:11:38.736Z,99938.53
2023-05-10T08:14:05.524Z,99940.34
2023-05-10T08:16:32.602Z,99951.03
2023-05-10T08:18:59.195Z,99944.63
2023-05-10T08:21:25.838Z,99948.22
2023-05-10T08:23:52.554Z,99960.00
2023-05-10T08:26:19.086Z,99960.94
2023-05-10T08:28:45.622Z,99959.81
2023-05-10T08:31:12.834Z,99966.47
2023-05-10T08:33:41.523Z,99962.03
2023-05-10T08:36:09.120Z,99970.66
2023-05-10T08:38:38.763Z,99981.53
2023-05-10T08:41:06.225Z,99973.84
2023-05-10T08:43:32.880Z,99982.41
2023-05-10T08:46:03.988Z,99983.44
2023-05-10T08:48:32.006Z,99975.09
2023-05-10T08:51:01.756Z,99989.44
2023-05-10T08:53:31.053Z,99996.25
2023-05-10T08:55:58.191Z,99992.53
2023-05-10T08:58:24.812Z,99993.88
2023-05-10T09:00:52.398Z,99998.88
2023-05-10T09:03:19.210Z,100002.03
2023-05-10T09:05:46.347Z,100006.06
2023-05-10T09:08:15.425Z,100015.72
2023-05-10T09:10:44.225Z,100019.53
2023-05-10T09:13:12.996Z,100020.34
2023-05-10T09:15:40.073Z,100021.63
2023-05-10T09:18:07.114Z,100025.56
2023-05-10T09:20:33.851Z,100031.47
2023-05-10T09:23:00.709Z,100025.69
2023-05-10T09:25:27.331Z,100025.06
2023-05-10T09:27:54.262Z,100028.75
2023-05-10T09:30:31.555Z,100031.97
2023-05-10T09:32:59.978Z,100027.56
2023-05-10T09:35:30.318Z,100031.91
2023-05-10T09:38:00.200Z,100037.75
2023-05-10T09:40:28.868Z,100037.47
2023-05-10T09:43:00.349Z,100038.97
2023-05-10T09:45:30.149Z,100050.81
2023-05-10T09:47:57.905Z,100048.56
2023-05-10T09:50:24.626Z,100055.13
2023-05-10T09:53:01.870Z,100057.44
2023-05-10T09:55:47.709Z,100057.44
2023-05-10T09:58:15.100Z,100053.88
2023-05-10T10:00:44.247Z,100052.50
2023-05-10T10:03:18.295Z,100054.97
2023-05-10T10:05:45.599Z,100058.53
2023-05-10T10:08:13.731Z,100057.28
2023-05-10T10:10:41.518Z,100061.75
2023-05-10T10:13:08.994Z,100064.72
2023-05-10T10:15:36.368Z,100071.53
2023-05-10T10:18:05.179Z,100068.09
2023-05-10T10:20:32.209Z,100075.84
2023-05-10T10:22:59.038Z,100077.00
2023-05-10T10:25:25.995Z,100077.53
2023-05-10T10:27:52.499Z,100083.44
2023-05-10T10:30:32.516Z,100083.69
2023-05-10T10:33:27.323Z,100075.63
2023-05-10T10:35:56.364Z,100075.66
2023-05-10T10:38:23.799Z,100077.16
2023-05-10T10:41:03.999Z,100089.41
2023-05-10T10:43:31.204Z,100082.19
2023-05-10T10:46:10.915Z,100086.72
2023-05-10T10:48:37.527Z,100089.13
2023-05-10T10:51:04.397Z,100094.88
2023-05-10T10:53:31.476Z,100090.66
2023-05-10T10:56:14.631Z,100087.31
2023-05-10T10:58:42.131Z,100089.56
2023-05-10T11:01:15.048Z,100087.34
2023-05-10T11:03:55.835Z,100086.00
2023-05-10T11:06:36.382Z,100087.13
2023-05-10T11:09:08.154Z,100086.59
2023-05-10T11:11:35.722Z,100083.25
2023-05-10T11:14:08.654Z,100080.00
2023-05-10T11:16:43.981Z,100085.47
2023-05-10T11:19:18.252Z,100092.59
2023-05-10T11:22:06.216Z,100092.47
2023-05-10T11:24:32.816Z,100099.38
2023-05-10T11:27:00.909Z,100098.97
2023-05-10T11:29:27.657Z,100095.59
2023-05-10T11:31:58.307Z,100098.38
2023-05-10T11:34:36.309Z,100098.44
2023-05-10T11:37:03.411Z,100096.16
2023-05-10T11:39:31.600Z,100104.63
2023-05-10T11:41:59.340Z,100107.63
2023-05-10T11:44:31.539Z,100099.63
2023-05-10T11:47:02.191Z,100103.88
2023-05-10T11:49:28.916Z,100111.72
2023-05-10T11:52:07.789Z,100114.88
2023-05-10T11:54:36.190Z,100118.13
2023-05-10T11:57:04.008Z,100124.69
2023-05-10T11:59:30.559Z,100125.50
2023-05-10T12:01:57.767Z,100126.78
2023-05-10T12:04:24.587Z,100126.03
2023-05-10T12:06:51.153Z,100132.59
2023-05-10T12:09:19.226Z,100126.78
2023-05-10T12:11:50.095Z,100126.31
2023-05-10T12:14:17.414Z,100125.09
2023-05-10T12:16:44.451Z,100125.03
2023-05-10T12:19:11.259Z,100132.19
2023-05-10T12:21:39.643Z,100128.81
2023-05-10T12:24:06.494Z,100131.91
2023-05-10T12:26:33.237Z,100135.91
2023-05-10T12:29:17.262Z,100143.25
2023-05-10T12:31:58.701Z,100147.50
2023-05-10T12:34:26.739Z,100142.81
2023-05-10T12:36:54.670Z,100144.94
2023-05-10T12:39:21.250Z,100159.66
2023-05-10T12:41:47.916Z,100166.41
2023-05-10T12:44:14.499Z,100161.00
2023-05-10T12:46:41.175Z,100157.78
2023-05-10T12:49:09.344Z,100162.34
2023-05-10T12:51:36.386Z,100165.31
2023-05-10T12:54:03.937Z,100170.09
2023-05-10T12:56:31.007Z,100182.81
2023-05-10T12:58:57.911Z,100173.81
2023-05-10T13:01:24.528Z,100174.84
2023-05-10T13:03:51.482Z,100173.22
2023-05-10T13:06:18.021Z,100171.72
2023-05-10T13:08:44.558Z,100174.00
2023-05-10T13:11:11.203Z,100178.69
2023-05-10T13:13:37.747Z,100178.69
2023-05-10T13:16:04.843Z,100187.16
2023-05-10T13:18:31.822Z,100182.66
2023-05-10T13:20:58.428Z,100182.53
2023-05-10T13:23:25.013Z,100189.63
2023-05-10T13:25:51.926Z,100190.22
2023-05-10T13:28:18.468Z,100188.59
2023-05-10T13:30:45.099Z,100189.66
2023-05-10T13:33:11.983Z,100185.84
2023-05-10T13:35:38.513Z,100188.78
2023-05-10T13:38:05.309Z,100189.03
2023-05-10T13:40:31.859Z,100189.34
2023-05-10T13:42:58.565Z,100181.84
2023-05-10T13:45:25.102Z,100180.50
2023-05-10T13:47:53.082Z,100174.59
2023-05-10T13:50:20.013Z,100163.19
2023-05-10T13:52:46.549Z,100170.13
2023-05-10T13:55:14.156Z,100173.97
2023-05-10T13:57:40.705Z,100179.03
2023-05-10T14:00:09.110Z,100177.44
2023-05-10T14:02:36.528Z,100190.41
2023-05-10T14:05:03.217Z,100187.41
2023-05-10T14:07:29.826Z,100192.53
2023-05-10T14:09:56.936Z,100189.75
2023-05-10T14:12:23.459Z,100193.09
2023-05-10T14:14:50.398Z,100192.56
2023-05-10T14:17:17.474Z,100191.41
2023-05-10T14:19:44.188Z,100186.59
2023-05-10T14:22:11.153Z,100190.22
2023-05-10T14:24:38.966Z,100198.63
2023-05-10T14:27:05.585Z,100201.69
2023-05-10T14:29:32.379Z,100195.97
2023-05-10T14:31:59.060Z,100201.09
2023-05-10T14:34:25.701Z,100191.72
2023-05-10T14:36:52.286Z,100199.25
2023-05-10T14:39:19.355Z,100204.28
2023-05-10T14:41:46.657Z,100203.91
2023-05-10T14:44:13.414Z,100200.91
2023-05-10T14:46:40.503Z,100202.88
2023-05-10T14:49:07.385Z,100209.50
2023-05-10T14:51:34.147Z,100197.66
2023-05-10T14:54:01.034Z,100201.78
2023-05-10T14:56:28.703Z,100210.59
2023-05-10T14:58:55.305Z,100210.47
2023-05-10T15:01:22.381Z,100210.16
2023-05-10T15:03:49.250Z,100210.25
2023-05-10T15:06:18.909Z,100209.78
2023-05-10T15:08:45.442Z,100217.41
2023-05-10T15:11:12.000Z,100210.91
2023-05-10T15:13:38.583Z,100210.53
2023-05-10T15:16:05.345Z,100216.66
2023-05-10T15:18:31.948Z,100213.53
2023-05-10T15:20:59.767Z,100222.47
2023-05-10T15:23:26.364Z,100221.81
2023-05-10T15:25:56.359Z,100219.41
2023-05-10T15:28:23.378Z,100228.97
2023-05-10T15:30:51.255Z,100221.88
2023-05-10T15:33:17.873Z,100223.56
2023-05-10T15:35:44.439Z,100226.38
2023-05-10T15:38:10.962Z,100227.19
2023-05-10T15:40:37.910Z,100236.31
2023-05-10T15:43:06.064Z,100233.97
2023-05-10T15:45:33.080Z,100237.28
2023-05-10T15:48:00.466Z,100235.34
2023-05-10T15:50:27.457Z,100240.09
2023-05-10T15:52:54.220Z,100238.00
2023-05-10T15:55:20.922Z,100231.38
2023-05-10T15:57:48.833Z,100237.09
2023-05-10T16:00:15.913Z,100235.06
2023-05-10T16:02:42.770Z,100241.59
2023-05-10T16:05:10.113Z,100243.13
2023-05-10T16:07:36.910Z,100239.69
2023-05-10T16:10:06.397Z,100240.25
2023-05-10T16:12:33.171Z,100242.09
2023-05-10T16:14:59.979Z,100237.56
2023-05-10T16:17:26.673Z,100236.97
2023-05-10T16:19:53.335Z,100248.44
2023-05-10T16:22:22.189Z,100252.38
2023-05-10T16:24:48.743Z,100252.41
2023-05-10T16:27:15.967Z,100251.25
2023-05-10T16:29:42.937Z,100249.78
2023-05-10T16:32:09.518Z,100260.94
2023-05-10T16:34:36.194Z,100251.59
2023-05-10T16:37:03.066Z,100261.94
2023-05-10T16:39:29.867Z,100254.59
2023-05-10T16:41:56.425Z,100263.94
2023-05-10T16:44:24.542Z,100270.28
2023-05-10T16:46:53.183Z,100280.22
2023-05-10T16:49:19.795Z,100288.13
2023-05-10T16:51:47.258Z,100286.19
2023-05-10T16:54:14.189Z,100290.69
2023-05-10T16:56:40.830Z,100294.91
2023-05-10T16:59:07.404Z,100304.03
2023-05-10T17:01:34.429Z,100296.16
2023-05-10T17:04:01.481Z,100298.34
2023-05-10T17:06:28.013Z,100306.88
2023-05-10T17:08:54.990Z,100308.50
2023-05-10T17:11:21.865Z,100311.88
2023-05-10T17:13:48.465Z,100309.84
2023-05-10T17:16:15.237Z,100312.69
2023-05-10T17:18:42.619Z,100313.78
2023-05-10T17:21:09.535Z,100308.28
2023-05-10T17:23:36.086Z,100317.91
2023-05-10T17:26:05.311Z,100322.59
2023-05-10T17:28:32.491Z,100320.66
2023-05-10T17:31:00.012Z,100320.84
2023-05-10T17:33:26.576Z,100323.97
2023-05-10T17:35:53.142Z,100324.53
2023-05-10T17:38:20.041Z,100329.66
2023-05-10T17:40:46.691Z,100335.72
2023-05-10T17:43:13.262Z,100329.19
2023-05-10T17:45:39.835Z,100332.22
2023-05-10T17:48:06.472Z,100336.06
2023-05-10T17:50:33.093Z,100338.22
2023-05-10T17:52:59.696Z,100343.16
2023-05-10T17:55:27.101Z,100340.44
2023-05-10T17:57:53.753Z,100346.09
2023-05-10T18:00:20.523Z,100341.16
2023-05-10T18:02:47.162Z,100341.19
2023-05-10T18:05:14.202Z,100338.56
2023-05-10T18:07:41.336Z,100346.97
2023-05-10T18:10:08.153Z,100354.13
2023-05-10T18:12:34.842Z,100339.03
2023-05-10T18:15:01.507Z,100338.03
2023-05-10T18:17:28.417Z,100339.56
2023-05-10T18:19:55.140Z,100345.13
2023-05-10T18:22:21.856Z,100351.34
2023-05-10T18:24:48.854Z,100347.19
2023-05-10T18:27:15.727Z,100348.38
2023-05-10T18:29:42.527Z,100357.00
2023-05-10T18:32:09.623Z,100358.63
2023-05-10T18:34:36.441Z,100361.81
2023-05-10T18:37:08.006Z,100368.25
2023-05-10T18:39:36.788Z,100361.97
2023-05-10T18:42:07.980Z,100371.91
2023-05-10T18:44:34.851Z,100371.44
2023-05-10T18:47:02.237Z,100368.63
2023-05-10T18:49:29.301Z,100383.72
2023-05-10T18:51:56.150Z,100380.25
2023-05-10T18:54:23.140Z,100385.97
2023-05-10T18:56:50.283Z,100392.09
2023-05-10T18:59:17.027Z,100400.31
2023-05-10T19:01:44.098Z,100394.16
2023-05-10T19:04:10.974Z,100402.38
2023-05-10T19:06:37.832Z,100402.38
2023-05-10T19:09:04.604Z,100412.28
2023-05-10T19:11:33.953Z,100409.25
2023-05-10T19:14:01.579Z,100411.97
2023-05-10T19:16:29.715Z,100410.16
2023-05-10T19:18:56.830Z,100413.06
2023-05-10T19:21:23.609Z,100416.13
2023-05-10T19:23:50.453Z,100422.84
2023-05-10T19:26:17.448Z,100422.44
2023-05-10T19:28:44.665Z,100420.94
2023-05-10T19:31:11.545Z,100430.16
2023-05-10T19:33:38.474Z,100424.66
2023-05-10T19:36:05.423Z,100428.25
2023-05-10T19:38:32.165Z,100426.25
2023-05-10T19:40:59.432Z,100426.41
2023-05-10T19:43:33.886Z,100434.53
2023-05-10T19:46:02.789Z,100433.56
2023-05-10T19:48:30.380Z,100437.78
2023-05-10T19:51:06.347Z,100433.88
2023-05-10T19:53:35.296Z,100437.09
2023-05-10T19:56:06.720Z,100441.66
2023-05-10T19:58:34.019Z,100445.19
2023-05-10T20:01:00.912Z,100444.13
2023-05-10T20:03:28.479Z,100442.44
2023-05-10T20:05:55.273Z,100445.03
2023-05-10T20:08:22.233Z,100444.75
2023-05-10T20:10:48.969Z,100437.22
2023-05-10T20:13:16.059Z,100446.81
2023-05-10T20:15:42.751Z,100445.28
2023-05-10T20:18:09.594Z,100445.28
2023-05-10T20:20:36.396Z,100448.69
2023-05-10T20:23:03.273Z,100448.22
2023-05-10T20:25:30.058Z,100448.59
2023-05-10T20:27:56.770Z,100447.19
2023-05-10T20:30:24.034Z,100449.88
2023-05-10T20:32:50.765Z,100450.13
2023-05-10T20:35:17.764Z,100456.94
2023-05-10T20:37:45.568Z,100457.84
2023-05-10T20:40:12.721Z,100454.38
2023-05-10T20:42:39.422Z,100462.22
2023-05-10T20:45:07.317Z,100460.63
2023-05-10T20:47:34.087Z,100463.84
2023-05-10T20:50:01.001Z,100455.47
2023-05-10T20:52:27.703Z,100451.19
2023-05-10T20:54:54.423Z,100454.53
2023-05-10T20:57:21.265Z,100457.63
2023-05-10T20:59:50.174Z,100450.38
2023-05-10T21:02:17.116Z,100454.34
2023-05-10T21:04:43.894Z,100453.19
2023-05-10T21:07:10.683Z,100463.06
2023-05-10T21:09:37.229Z,100459.75
2023-05-10T21:12:04.273Z,100460.56
2023-05-10T21:14:31.087Z,100457.78
2023-05-10T21:16:57.650Z,100456.13
2023-05-10T21:19:24.182Z,100454.91
2023-05-10T21:21:51.152Z,100457.31
2023-05-10T21:24:17.986Z,100456.81
2023-05-10T21:26:44.941Z,100453.63
2023-05-10T21:29:11.537Z,100456.94
2023-05-10T21:31:38.627Z,100456.06
2023-05-10T21:34:05.214Z,100451.09
2023-05-10T21:36:32.224Z,100452.88
2023-05-10T21:38:59.045Z,100457.06
2023-05-10T21:41:25.675Z,100466.88
2023-05-10T21:43:52.387Z,100470.34
2023-05-10T21:46:19.436Z,100464.94
2023-05-10T21:48:46.109Z,100463.66
2023-05-10T21:51:12.785Z,100457.59
2023-05-10T21:53:39.428Z,100469.81
2023-05-10T21:56:07.644Z,100472.31
2023-05-10T21:58:34.444Z,100471.75
2023-05-10T22:01:01.034Z,100466.13
2023-05-10T22:03:27.738Z,100468.88
2023-05-10T22:05:54.673Z,100475.81
2023-05-10T22:08:21.212Z,100469.44
2023-05-10T22:10:47.827Z,100467.00
2023-05-10T22:13:14.639Z,100478.25
2023-05-10T22:15:41.275Z,100470.28
2023-05-10T22:18:07.873Z,100473.34
2023-05-10T22:20:34.501Z,100469.38
2023-05-10T22:23:01.109Z,100473.97
2023-05-10T22:25:28.194Z,100466.97
2023-05-10T22:27:54.816Z,100473.25
2023-05-10T22:30:21.498Z,100479.91
2023-05-10T22:32:49.083Z,100478.56
2023-05-10T22:35:15.856Z,100474.72
2023-05-10T22:37:42.839Z,100475.25
2023-05-10T22:40:09.885Z,100474.06
2023-05-10T22:42:36.477Z,100472.00
2023-05-10T22:45:03.577Z,100479.06
2023-05-10T22:47:30.312Z,100478.94
2023-05-10T22:49:58.191Z,100477.28
2023-05-10T22:52:25.019Z,100485.31
2023-05-10T22:54:51.598Z,100480.94
2023-05-10T22:57:18.549Z,100487.53
2023-05-10T22:59:45.125Z,100481.41
2023-05-10T23:02:11.771Z,100483.03
2023-05-10T23:04:38.467Z,100485.44
2023-05-10T23:07:05.131Z,100486.78
2023-05-10T23:09:31.660Z,100484.22
2023-05-10T23:11:58.487Z,100483.94
2023-05-10T23:14:25.072Z,100478.56
2023-05-10T23:16:51.679Z,100475.81
2023-05-10T23:19:18.257Z,100478.72
2023-05-10T23:21:44.807Z,100479.56
2023-05-10T23:24:12.213Z,100483.06
2023-05-10T23:26:38.812Z,100489.88
2023-05-10T23:29:05.959Z,100490.34
2023-05-10T23:31:32.501Z,100489.34
2023-05-10T23:33:59.650Z,100488.59
2023-05-10T23:36:26.267Z,100490.81
2023-05-10T23:38:53.078Z,100492.13
2023-05-10T23:41:19.638Z,100487.66
2023-05-10T23:43:46.411Z,100493.97
2023-05-10T23:46:13.311Z,100492.56
2023-05-10T23:48:39.908Z,100494.22
2023-05-10T23:51:06.602Z,100498.41
2023-05-10T23:53:33.145Z,100501.41
2023-05-10T23:55:59.688Z,100497.94
2023-05-10T23:58:26.454Z,100493.44
